Denver, Colorado
Traffic Map
Current Weather Conditions
Denver, Colorado
Broken Clouds Rain Showers
Broken Clouds
25°
Feels Like: 25°
Wind Chill: 25° Ceiling: 10000
Heat Index: 25° Visibility: 10mi
Dew Point: Wind: 9mph
Humidity: 23% Direction: 20° (NNE)
Pressure: 30.06in Gusts: 0mph
Raw Report DataKBKF 180058Z 02008KT 10SM VCSH SCT070 BKN100 BKN220 25/03 A3006 RMK AO2A SLP107 T02490026
Traffic Incident Summary
Active as of:
Severity:
Category:
InformationThere was an issue retrieving the traffic information for this location. Please try a different location or try again shortly.
Advertisements
Track Severe Weather on mobile